createdAt,value
2022-12-03T00:00:28.045Z,3.55
2022-12-03T00:03:16.301Z,3.58
2022-12-03T00:05:48.893Z,3.60
2022-12-03T00:08:17.571Z,3.63
2022-12-03T00:10:45.867Z,3.65
2022-12-03T00:13:14.201Z,3.68
2022-12-03T00:15:42.384Z,3.70
2022-12-03T00:18:10.708Z,3.73
2022-12-03T00:20:38.794Z,3.73
2022-12-03T00:23:06.783Z,3.73
2022-12-03T00:25:35.054Z,3.74
2022-12-03T00:28:03.171Z,3.74
2022-12-03T00:30:31.319Z,3.76
2022-12-03T00:32:59.347Z,3.76
2022-12-03T00:35:27.566Z,3.76
2022-12-03T00:37:56.069Z,3.76
2022-12-03T00:40:24.125Z,3.76
2022-12-03T00:42:52.287Z,3.76
2022-12-03T00:45:20.315Z,3.73
2022-12-03T00:47:48.362Z,3.71
2022-12-03T00:50:16.736Z,3.70
2022-12-03T00:52:44.942Z,3.71
2022-12-03T00:55:13.008Z,3.73
2022-12-03T00:57:41.024Z,3.76
2022-12-03T01:00:11.067Z,3.78
2022-12-03T01:02:39.814Z,3.78
2022-12-03T01:05:08.603Z,3.82
2022-12-03T01:07:36.872Z,3.85
2022-12-03T01:10:05.667Z,3.89
2022-12-03T01:12:33.770Z,3.90
2022-12-03T01:15:02.149Z,3.89
2022-12-03T01:17:30.139Z,3.89
2022-12-03T01:19:59.163Z,3.88
2022-12-03T01:22:28.023Z,3.86
2022-12-03T01:24:56.134Z,3.85
2022-12-03T01:27:24.305Z,3.83
2022-12-03T01:29:52.512Z,3.80
2022-12-03T01:32:20.601Z,3.79
2022-12-03T01:34:54.233Z,3.79
2022-12-03T01:37:25.776Z,3.80
2022-12-03T01:39:54.434Z,3.80
2022-12-03T01:42:41.749Z,3.79
2022-12-03T01:45:21.407Z,3.79
2022-12-03T01:47:49.627Z,3.80
2022-12-03T01:50:30.399Z,3.79
2022-12-03T01:53:01.655Z,3.77
2022-12-03T01:55:30.072Z,3.73
2022-12-03T01:58:00.951Z,3.73
2022-12-03T02:00:30.295Z,3.75
2022-12-03T02:03:07.773Z,3.75
2022-12-03T02:05:37.101Z,3.74
2022-12-03T02:08:31.299Z,3.74
2022-12-03T02:11:06.634Z,3.75
2022-12-03T02:13:35.327Z,3.77
2022-12-03T02:16:04.538Z,3.79
2022-12-03T02:18:32.749Z,3.79
2022-12-03T02:21:12.369Z,3.80
2022-12-03T02:23:40.409Z,3.80
2022-12-03T02:26:08.530Z,3.82
2022-12-03T02:28:38.262Z,3.83
2022-12-03T02:31:07.332Z,3.84
2022-12-03T02:33:35.676Z,3.84
2022-12-03T02:36:04.353Z,3.85
2022-12-03T02:38:35.214Z,3.86
2022-12-03T02:41:07.500Z,3.87
2022-12-03T02:43:36.053Z,3.89
2022-12-03T02:46:07.575Z,3.89
2022-12-03T02:48:41.011Z,3.89
2022-12-03T02:51:11.067Z,3.91
2022-12-03T02:53:44.582Z,3.93
2022-12-03T02:56:16.588Z,3.94
2022-12-03T02:58:47.115Z,3.94
2022-12-03T03:01:18.296Z,3.95
2022-12-03T03:03:48.888Z,3.96
2022-12-03T03:06:19.730Z,3.94
2022-12-03T03:08:48.504Z,3.93
2022-12-03T03:11:16.750Z,3.90
2022-12-03T03:13:44.917Z,3.90
2022-12-03T03:16:13.143Z,3.89
2022-12-03T03:18:42.028Z,3.89
2022-12-03T03:21:10.429Z,3.87
2022-12-03T03:23:38.678Z,3.88
2022-12-03T03:26:10.002Z,3.89
2022-12-03T03:28:46.152Z,3.91
2022-12-03T03:31:18.269Z,3.94
2022-12-03T03:33:48.550Z,3.97
2022-12-03T03:36:17.135Z,3.98
2022-12-03T03:38:45.355Z,4.00
2022-12-03T03:41:14.609Z,4.01
2022-12-03T03:43:44.468Z,4.03
2022-12-03T03:46:12.912Z,4.04
2022-12-03T03:48:42.648Z,4.05
2022-12-03T03:51:12.325Z,4.05
2022-12-03T03:53:43.214Z,4.06
2022-12-03T03:56:13.447Z,4.07
2022-12-03T03:58:41.611Z,4.08
2022-12-03T04:01:12.628Z,4.09
2022-12-03T04:03:41.201Z,4.09
2022-12-03T04:06:09.974Z,4.10
2022-12-03T04:08:38.087Z,4.10
2022-12-03T04:11:25.375Z,4.10
2022-12-03T04:13:53.528Z,4.10
2022-12-03T04:16:21.675Z,4.10
2022-12-03T04:18:49.776Z,4.10
2022-12-03T04:21:38.734Z,4.09
2022-12-03T04:24:09.031Z,4.10
2022-12-03T04:26:56.041Z,4.08
2022-12-03T04:29:24.312Z,4.07
2022-12-03T04:32:11.115Z,4.04
2022-12-03T04:34:58.253Z,4.03
2022-12-03T04:37:26.330Z,4.01
2022-12-03T04:39:54.651Z,3.98
2022-12-03T04:42:22.971Z,3.97
2022-12-03T04:44:51.101Z,3.95
2022-12-03T04:47:22.008Z,3.93
2022-12-03T04:49:51.665Z,3.93
2022-12-03T04:52:20.861Z,3.89
2022-12-03T04:54:48.979Z,3.86
2022-12-03T04:57:17.384Z,3.84
2022-12-03T04:59:45.473Z,3.81
2022-12-03T05:02:13.540Z,3.79
2022-12-03T05:04:42.236Z,3.77
2022-12-03T05:07:11.818Z,3.74
2022-12-03T05:09:39.923Z,3.71
2022-12-03T05:12:08.134Z,3.68
2022-12-03T05:14:36.650Z,3.64
2022-12-03T05:17:04.787Z,3.62
2022-12-03T05:19:51.579Z,3.58
2022-12-03T05:22:19.630Z,3.54
2022-12-03T05:24:47.742Z,3.52
2022-12-03T05:27:20.207Z,3.50
2022-12-03T05:29:52.597Z,3.49
2022-12-03T05:32:20.886Z,3.49
2022-12-03T05:34:48.963Z,3.47
2022-12-03T05:37:17.082Z,3.45
2022-12-03T05:39:45.150Z,3.42
2022-12-03T05:42:31.952Z,3.39
2022-12-03T05:45:00.222Z,3.36
2022-12-03T05:47:28.307Z,3.35
2022-12-03T05:49:56.352Z,3.31
2022-12-03T05:52:24.385Z,3.27
2022-12-03T05:54:52.782Z,3.22
2022-12-03T05:57:21.174Z,3.16
2022-12-03T05:59:49.372Z,3.09
2022-12-03T06:02:17.433Z,3.03
2022-12-03T06:04:45.781Z,2.94
2022-12-03T06:07:14.409Z,2.86
2022-12-03T06:09:42.737Z,2.81
2022-12-03T06:12:10.738Z,2.78
2022-12-03T06:14:38.839Z,2.72
2022-12-03T06:17:07.379Z,2.66
2022-12-03T06:19:35.679Z,2.64
2022-12-03T06:22:03.988Z,2.60
2022-12-03T06:24:32.308Z,2.58
2022-12-03T06:27:00.303Z,2.56
2022-12-03T06:29:28.493Z,2.56
2022-12-03T06:31:56.546Z,2.55
2022-12-03T06:34:24.634Z,2.55
2022-12-03T06:36:52.661Z,2.54
2022-12-03T06:39:22.693Z,2.54
2022-12-03T06:41:50.858Z,2.51
2022-12-03T06:44:19.088Z,2.50
2022-12-03T06:46:48.125Z,2.46
2022-12-03T06:49:16.395Z,2.49
2022-12-03T06:51:44.484Z,2.51
2022-12-03T06:54:12.533Z,2.52
2022-12-03T06:56:45.068Z,2.55
2022-12-03T06:59:14.060Z,2.62
2022-12-03T07:01:42.999Z,2.68
2022-12-03T07:04:11.567Z,2.75
2022-12-03T07:06:40.312Z,2.80
2022-12-03T07:09:08.877Z,2.84
2022-12-03T07:11:40.726Z,2.87
2022-12-03T07:14:11.686Z,2.94
2022-12-03T07:16:40.308Z,2.99
2022-12-03T07:19:09.670Z,3.05
2022-12-03T07:21:38.169Z,3.12
2022-12-03T07:24:06.786Z,3.20
2022-12-03T07:26:37.254Z,3.28
2022-12-03T07:29:05.612Z,3.37
2022-12-03T07:31:33.721Z,3.47
2022-12-03T07:34:02.364Z,3.55
2022-12-03T07:36:30.686Z,3.62
2022-12-03T07:38:58.793Z,3.70
2022-12-03T07:41:26.961Z,3.78
2022-12-03T07:43:55.196Z,3.86
2022-12-03T07:46:23.368Z,3.92
2022-12-03T07:48:54.524Z,3.98
2022-12-03T07:52:36.036Z,4.04
2022-12-03T07:55:14.730Z,4.20
2022-12-03T07:58:13.621Z,4.32
2022-12-03T08:01:03.897Z,4.48
2022-12-03T08:11:27.598Z,4.91
2022-12-03T08:14:53.397Z,5.02
2022-12-03T08:17:43.288Z,5.15
2022-12-03T08:20:28.395Z,5.23
2022-12-03T08:23:11.972Z,5.31
2022-12-03T08:25:46.571Z,5.38
2022-12-03T08:28:21.827Z,5.44
2022-12-03T08:31:07.513Z,5.50
2022-12-03T08:33:37.168Z,5.58
2022-12-03T08:36:30.689Z,5.64
2022-12-03T08:39:20.427Z,5.69
2022-12-03T08:42:13.918Z,5.71
2022-12-03T08:44:42.651Z,5.74
2022-12-03T08:47:19.774Z,5.76
2022-12-03T08:49:54.368Z,5.79
2022-12-03T08:52:31.000Z,5.81
2022-12-03T08:55:02.951Z,5.82
2022-12-03T08:57:34.657Z,5.79
2022-12-03T09:00:12.798Z,5.79
2022-12-03T09:02:46.324Z,5.81
2022-12-03T09:05:22.729Z,5.85
2022-12-03T09:07:51.018Z,5.85
2022-12-03T09:10:19.187Z,5.92
2022-12-03T09:12:47.995Z,5.96
2022-12-03T09:15:16.256Z,5.98
2022-12-03T09:17:44.578Z,5.97
2022-12-03T09:20:13.183Z,5.99
2022-12-03T09:22:41.672Z,5.99
2022-12-03T09:25:09.966Z,5.97
2022-12-03T09:27:38.098Z,5.95
2022-12-03T09:30:08.645Z,5.94
2022-12-03T09:32:37.191Z,5.97
2022-12-03T09:35:06.340Z,6.05
2022-12-03T09:37:34.813Z,6.10
2022-12-03T09:40:03.935Z,6.10
2022-12-03T09:42:32.061Z,6.04
2022-12-03T09:45:01.881Z,5.98
2022-12-03T09:47:31.570Z,5.98
2022-12-03T09:50:00.468Z,5.96
2022-12-03T09:52:34.039Z,5.99
2022-12-03T09:55:08.029Z,6.05
2022-12-03T09:57:36.791Z,6.14
2022-12-03T10:00:15.875Z,6.13
2022-12-03T10:02:44.089Z,6.11
2022-12-03T10:05:13.476Z,6.05
2022-12-03T10:07:42.904Z,6.07
2022-12-03T10:10:20.905Z,6.08
2022-12-03T10:12:51.075Z,6.07
2022-12-03T10:15:23.093Z,6.05
2022-12-03T10:17:55.106Z,6.00
2022-12-03T10:20:27.156Z,6.01
2022-12-03T10:22:55.211Z,6.01
2022-12-03T10:25:24.296Z,5.93
2022-12-03T10:28:01.417Z,5.88
2022-12-03T10:30:32.052Z,5.89
2022-12-03T10:33:18.995Z,5.90
2022-12-03T10:35:57.780Z,5.88
2022-12-03T10:39:21.664Z,5.82
2022-12-03T10:42:17.661Z,5.81
2022-12-03T10:45:16.818Z,5.78
2022-12-03T10:48:21.106Z,5.80
2022-12-03T10:50:53.289Z,5.82
2022-12-03T10:53:27.823Z,5.83
2022-12-03T10:56:00.732Z,5.81
2022-12-03T10:58:34.344Z,5.78
2022-12-03T11:01:14.903Z,5.80
2022-12-03T11:03:45.748Z,5.81
2022-12-03T11:06:23.206Z,5.82
2022-12-03T11:09:08.297Z,5.80
2022-12-03T11:11:41.501Z,5.82
2022-12-03T11:14:14.743Z,5.83
2022-12-03T11:16:48.338Z,5.79
2022-12-03T11:19:19.630Z,5.84
2022-12-03T11:22:06.612Z,5.87
2022-12-03T11:24:39.596Z,5.86
2022-12-03T11:27:09.286Z,5.86
2022-12-03T11:29:54.569Z,5.90
2022-12-03T11:32:38.544Z,5.92
2022-12-03T11:35:13.449Z,5.90
2022-12-03T11:37:43.827Z,5.93
2022-12-03T11:40:17.328Z,5.93
2022-12-03T11:42:47.585Z,5.91
2022-12-03T11:45:23.402Z,5.90
2022-12-03T11:48:16.179Z,5.90
2022-12-03T11:50:55.377Z,5.94
2022-12-03T11:53:27.350Z,5.98
2022-12-03T11:56:09.265Z,5.99
2022-12-03T11:58:42.638Z,5.99
2022-12-03T12:01:12.490Z,5.95
2022-12-03T12:03:48.426Z,5.93
2022-12-03T12:06:20.201Z,5.93
2022-12-03T12:08:50.023Z,5.92
2022-12-03T12:11:18.195Z,5.92
2022-12-03T12:13:55.512Z,5.91
2022-12-03T12:16:43.031Z,5.92
2022-12-03T12:19:32.800Z,5.96
2022-12-03T12:22:21.068Z,5.98
2022-12-03T12:25:32.684Z,6.04
2022-12-03T12:28:02.329Z,6.18
2022-12-03T12:30:31.026Z,6.29
2022-12-03T12:33:12.422Z,6.35
2022-12-03T12:35:41.067Z,6.44
2022-12-03T12:38:12.073Z,6.53
2022-12-03T12:40:43.020Z,6.58
2022-12-03T12:43:15.277Z,6.62
2022-12-03T12:45:46.044Z,6.59
2022-12-03T12:48:22.254Z,6.57
2022-12-03T12:50:58.932Z,6.60
2022-12-03T12:53:35.048Z,6.60
2022-12-03T12:56:26.633Z,6.63
2022-12-03T12:58:54.850Z,6.68
2022-12-03T13:01:27.298Z,6.69
2022-12-03T13:03:58.451Z,6.75
2022-12-03T13:06:32.318Z,6.88
2022-12-03T13:09:01.827Z,7.00
2022-12-03T13:11:35.631Z,7.05
2022-12-03T13:14:19.649Z,7.10
2022-12-03T13:16:49.786Z,7.10
2022-12-03T13:19:49.391Z,7.10
2022-12-03T13:22:23.108Z,7.11
2022-12-03T13:24:54.418Z,7.17
2022-12-03T13:27:31.964Z,7.12
2022-12-03T13:30:14.267Z,7.11
2022-12-03T13:32:44.159Z,7.03
2022-12-03T13:35:27.082Z,7.01
2022-12-03T13:37:55.787Z,6.94
2022-12-03T13:40:30.830Z,6.88
2022-12-03T13:42:59.507Z,6.85
2022-12-03T13:45:43.780Z,6.79
2022-12-03T13:48:21.366Z,6.69
2022-12-03T13:50:52.724Z,6.53
2022-12-03T13:53:26.617Z,6.43
2022-12-03T13:56:34.173Z,6.34
2022-12-03T13:59:04.538Z,6.19
2022-12-03T14:01:33.279Z,6.04
2022-12-03T14:04:01.688Z,5.88
2022-12-03T14:06:30.035Z,5.70
2022-12-03T14:08:58.989Z,5.57
2022-12-03T14:11:45.877Z,5.44
2022-12-03T14:14:14.602Z,5.33
2022-12-03T14:16:43.201Z,5.24
2022-12-03T14:19:11.251Z,5.13
2022-12-03T14:21:39.508Z,5.05
2022-12-03T14:24:07.791Z,5.00
2022-12-03T14:26:36.143Z,4.92
2022-12-03T14:29:08.752Z,4.84
2022-12-03T14:31:37.342Z,4.77
2022-12-03T14:34:05.834Z,4.73
2022-12-03T14:36:33.960Z,4.70
2022-12-03T14:39:02.891Z,4.66
2022-12-03T14:41:49.403Z,4.60
2022-12-03T14:44:18.805Z,4.55
2022-12-03T14:46:47.531Z,4.48
2022-12-03T14:49:16.044Z,4.43
2022-12-03T14:51:44.231Z,4.37
2022-12-03T14:54:13.910Z,4.33
2022-12-03T14:56:41.950Z,4.28
2022-12-03T14:59:10.857Z,4.24
2022-12-03T15:01:39.068Z,4.20
2022-12-03T15:04:08.012Z,4.15
2022-12-03T15:06:36.088Z,4.10
2022-12-03T15:09:04.937Z,4.08
2022-12-03T15:11:34.755Z,4.07
2022-12-03T15:14:05.381Z,4.03
2022-12-03T15:16:34.859Z,4.00
2022-12-03T15:19:04.925Z,3.98
2022-12-03T15:21:35.133Z,3.94
2022-12-03T15:24:03.756Z,3.91
2022-12-03T15:26:31.784Z,3.86
2022-12-03T15:29:00.380Z,3.82
2022-12-03T15:31:28.951Z,3.80
2022-12-03T15:33:57.622Z,3.74
2022-12-03T15:36:25.755Z,3.73
2022-12-03T15:38:53.887Z,3.72
2022-12-03T15:41:25.742Z,3.69
2022-12-03T15:43:53.977Z,3.67
2022-12-03T15:46:23.878Z,3.65
2022-12-03T15:48:52.906Z,3.61
2022-12-03T15:51:21.204Z,3.58
2022-12-03T15:53:49.881Z,3.57
2022-12-03T15:56:18.023Z,3.55
2022-12-03T15:58:46.245Z,3.53
2022-12-03T16:01:15.373Z,3.51
2022-12-03T16:03:43.653Z,3.50
2022-12-03T16:06:12.725Z,3.50
2022-12-03T16:08:40.765Z,3.49
2022-12-03T16:11:09.412Z,3.49
2022-12-03T16:13:37.479Z,3.48
2022-12-03T16:16:06.780Z,3.46
2022-12-03T16:18:35.220Z,3.43
2022-12-03T16:21:03.383Z,3.40
2022-12-03T16:23:31.456Z,3.37
2022-12-03T16:26:00.893Z,3.35
2022-12-03T16:28:29.428Z,3.35
2022-12-03T16:30:58.209Z,3.35
2022-12-03T16:33:27.971Z,3.35
2022-12-03T16:35:56.350Z,3.30
2022-12-03T16:38:25.343Z,3.29
2022-12-03T16:40:53.440Z,3.27
2022-12-03T16:43:21.626Z,3.26
2022-12-03T16:46:03.153Z,3.25
2022-12-03T16:48:31.738Z,3.24
2022-12-03T16:51:00.698Z,3.22
2022-12-03T16:53:28.664Z,3.21
2022-12-03T16:55:56.836Z,3.19
2022-12-03T16:58:25.345Z,3.16
2022-12-03T17:00:54.441Z,3.16
2022-12-03T17:03:22.972Z,3.17
2022-12-03T17:05:51.052Z,3.16
2022-12-03T17:08:19.334Z,3.14
2022-12-03T17:10:47.832Z,3.15
2022-12-03T17:13:16.087Z,3.12
2022-12-03T17:15:44.395Z,3.13
2022-12-03T17:18:12.630Z,3.12
2022-12-03T17:20:41.860Z,3.11
2022-12-03T17:23:11.975Z,3.09
2022-12-03T17:25:40.090Z,3.05
2022-12-03T17:28:08.247Z,3.03
2022-12-03T17:30:38.544Z,3.01
2022-12-03T17:33:06.603Z,3.00
2022-12-03T17:35:34.897Z,2.97
2022-12-03T17:38:03.028Z,2.97
2022-12-03T17:40:31.535Z,2.94
2022-12-03T17:42:59.653Z,2.95
2022-12-03T17:45:28.681Z,2.94
2022-12-03T17:47:56.904Z,2.92
2022-12-03T17:50:26.255Z,2.93
2022-12-03T17:52:54.356Z,2.92
2022-12-03T17:55:31.954Z,2.92
2022-12-03T17:58:06.713Z,2.92
2022-12-03T18:00:34.880Z,2.93
2022-12-03T18:03:03.213Z,2.92
2022-12-03T18:05:31.233Z,2.91
2022-12-03T18:08:00.193Z,2.90
2022-12-03T18:10:28.880Z,2.91
2022-12-03T18:13:01.687Z,2.90
2022-12-03T18:15:32.297Z,2.90
2022-12-03T18:18:07.703Z,2.90
2022-12-03T18:20:37.817Z,2.89
2022-12-03T18:23:06.046Z,2.90
2022-12-03T18:25:34.267Z,2.91
2022-12-03T18:28:03.135Z,2.92
2022-12-03T18:30:31.791Z,2.92
2022-12-03T18:33:00.570Z,2.90
2022-12-03T18:35:28.835Z,2.90
2022-12-03T18:37:56.963Z,2.89
2022-12-03T18:40:27.430Z,2.86
2022-12-03T18:42:57.592Z,2.86
2022-12-03T18:45:28.426Z,2.86
2022-12-03T18:47:57.352Z,2.86
2022-12-03T18:50:25.352Z,2.85
2022-12-03T18:52:53.556Z,2.83
2022-12-03T18:55:22.016Z,2.80
2022-12-03T18:57:50.529Z,2.79
2022-12-03T19:00:18.816Z,2.78
2022-12-03T19:03:03.020Z,2.76
2022-12-03T19:05:34.197Z,2.75
2022-12-03T19:08:04.004Z,2.74
2022-12-03T19:10:32.144Z,2.74
2022-12-03T19:13:01.021Z,2.74
2022-12-03T19:15:30.774Z,2.74
2022-12-03T19:17:58.804Z,2.73
2022-12-03T19:20:26.936Z,2.73
2022-12-03T19:22:55.127Z,2.71
2022-12-03T19:25:23.292Z,2.68
2022-12-03T19:27:55.175Z,2.66
2022-12-03T19:30:24.276Z,2.65
2022-12-03T19:32:52.435Z,2.65
2022-12-03T19:35:22.688Z,2.65
2022-12-03T19:37:52.002Z,2.65
2022-12-03T19:40:20.088Z,2.66
2022-12-03T19:42:48.200Z,2.68
2022-12-03T19:45:16.424Z,2.70
2022-12-03T19:47:45.781Z,2.76
2022-12-03T19:50:22.682Z,2.84
2022-12-03T19:52:51.346Z,2.87
2022-12-03T19:55:22.312Z,2.88
2022-12-03T19:57:50.491Z,2.85
2022-12-03T20:00:18.875Z,2.86
2022-12-03T20:02:50.021Z,2.84
2022-12-03T20:05:19.681Z,2.83
2022-12-03T20:07:47.903Z,2.82
2022-12-03T20:10:16.184Z,2.79
2022-12-03T20:12:44.867Z,2.79
2022-12-03T20:15:13.659Z,2.79
2022-12-03T20:17:43.617Z,2.77
2022-12-03T20:20:12.004Z,2.72
2022-12-03T20:22:40.137Z,2.69
2022-12-03T20:25:10.186Z,2.65
2022-12-03T20:27:38.376Z,2.63
2022-12-03T20:30:07.766Z,2.61
2022-12-03T20:32:39.402Z,2.57
2022-12-03T20:35:12.359Z,2.57
2022-12-03T20:37:40.701Z,2.58
2022-12-03T20:40:09.649Z,2.59
2022-12-03T20:42:37.937Z,2.59
2022-12-03T20:45:07.412Z,2.60
2022-12-03T20:47:35.660Z,2.62
2022-12-03T20:50:03.945Z,2.63
2022-12-03T20:52:32.118Z,2.63
2022-12-03T20:55:00.392Z,2.63
2022-12-03T20:57:29.590Z,2.60
2022-12-03T20:59:57.906Z,2.61
2022-12-03T21:02:27.222Z,2.61
2022-12-03T21:04:56.008Z,2.60
2022-12-03T21:07:24.089Z,2.59
2022-12-03T21:09:52.503Z,2.57
2022-12-03T21:12:20.817Z,2.54
2022-12-03T21:14:48.954Z,2.53
2022-12-03T21:17:17.206Z,2.53
2022-12-03T21:19:46.309Z,2.53
2022-12-03T21:22:15.163Z,2.54
2022-12-03T21:24:43.906Z,2.54
2022-12-03T21:27:14.574Z,2.54
2022-12-03T21:29:46.691Z,2.52
2022-12-03T21:32:14.757Z,2.51
2022-12-03T21:34:44.753Z,2.49
2022-12-03T21:37:13.660Z,2.48
2022-12-03T21:39:42.142Z,2.43
2022-12-03T21:42:35.009Z,2.42
2022-12-03T21:44:58.871Z,2.40
2022-12-03T21:47:28.922Z,2.39
2022-12-03T21:49:59.025Z,2.36
2022-12-03T21:52:28.072Z,2.30
2022-12-03T21:54:56.185Z,2.26
2022-12-03T21:57:25.020Z,2.28
2022-12-03T21:59:53.709Z,2.25
2022-12-03T22:02:22.464Z,2.22
2022-12-03T22:04:51.419Z,2.17
2022-12-03T22:07:19.698Z,2.17
2022-12-03T22:09:47.805Z,2.14
2022-12-03T22:12:15.912Z,2.10
2022-12-03T22:14:44.069Z,2.09
2022-12-03T22:17:12.193Z,2.09
2022-12-03T22:19:40.476Z,2.10
2022-12-03T22:22:08.639Z,2.13
2022-12-03T22:24:36.805Z,2.14
2022-12-03T22:27:05.095Z,2.09
2022-12-03T22:29:33.214Z,2.06
2022-12-03T22:32:01.420Z,1.99
2022-12-03T22:34:29.526Z,1.98
2022-12-03T22:36:57.591Z,1.97
2022-12-03T22:39:25.649Z,1.93
2022-12-03T22:41:54.047Z,1.92
2022-12-03T22:44:22.165Z,1.92
2022-12-03T22:46:50.320Z,1.90
2022-12-03T22:49:18.619Z,1.89
2022-12-03T22:51:47.549Z,1.86
2022-12-03T22:54:18.277Z,1.86
2022-12-03T22:56:50.498Z,1.88
2022-12-03T22:59:18.584Z,1.88
2022-12-03T23:01:47.821Z,1.88
2022-12-03T23:04:16.311Z,1.87
2022-12-03T23:06:44.475Z,1.87
2022-12-03T23:09:12.786Z,1.84
2022-12-03T23:11:44.854Z,1.86
2022-12-03T23:14:13.232Z,1.90
2022-12-03T23:16:41.330Z,1.91
2022-12-03T23:19:09.359Z,1.92
2022-12-03T23:21:37.731Z,1.94
2022-12-03T23:24:06.595Z,1.94
2022-12-03T23:26:37.692Z,1.95
2022-12-03T23:29:06.563Z,1.96
2022-12-03T23:31:34.870Z,1.97
2022-12-03T23:34:04.135Z,1.95
2022-12-03T23:36:33.770Z,1.94
2022-12-03T23:39:02.142Z,1.96
2022-12-03T23:41:30.281Z,1.96
2022-12-03T23:43:58.786Z,1.96
2022-12-03T23:46:28.177Z,1.97
2022-12-03T23:48:58.859Z,2.00
2022-12-03T23:51:27.736Z,2.03
2022-12-03T23:53:57.024Z,2.03
2022-12-03T23:56:29.197Z,2.05
2022-12-03T23:58:59.023Z,2.07
